Time;durP1;ratioP1;P1;durP2;ratioP2;P2;SDS_P1;SDS_P2;PMS_P1;PMS_P2;Temp;Humidity;BMP_temperature;BMP_pressure;BME280_temperature;BME280_humidity;BME280_pressure;Samples;Min_cycle;Max_cycle;Signal;HPM_P1;HPM_P2
2024/03/15 00:00:23;;;;;;;29.40;19.17;;;;;;;9.77;100.00;99870.69;5100362;27;20039;-69
2024/03/15 00:02:51;;;;;;;32.03;20.20;;;;;;;9.73;100.00;99870.03;5104680;27;20078;-71
2024/03/15 00:05:20;;;;;;;33.50;21.08;;;;;;;9.69;100.00;99876.38;5105407;27;20469;-70
2024/03/15 00:07:48;;;;;;;34.77;21.30;;;;;;;9.67;100.00;99872.09;5083759;27;20039;-70
2024/03/15 00:10:17;;;;;;;31.90;20.20;;;;;;;9.64;100.00;99872.25;5091021;27;20043;-69
2024/03/15 00:12:45;;;;;;;32.17;20.25;;;;;;;9.61;100.00;99875.91;5100043;27;20035;-69
2024/03/15 00:15:14;;;;;;;39.55;22.83;;;;;;;9.58;100.00;99880.53;5085666;27;20046;-69
2024/03/15 00:17:43;;;;;;;30.67;20.92;;;;;;;9.57;100.00;99873.53;5081201;27;20131;-70
2024/03/15 00:20:11;;;;;;;31.05;19.42;;;;;;;9.52;100.00;99870.25;5083946;27;20058;-69
2024/03/15 00:22:39;;;;;;;31.60;19.83;;;;;;;9.52;100.00;99883.47;5081062;27;20096;-72
2024/03/15 00:25:08;;;;;;;28.45;19.25;;;;;;;9.24;100.00;99844.38;5087273;27;20104;-70
2024/03/15 00:27:36;;;;;;;30.27;19.63;;;;;;;9.43;100.00;99884.81;5094873;27;20070;-70
2024/03/15 00:30:08;;;;;;;29.45;18.90;;;;;;;9.45;100.00;99888.19;5102196;27;20043;-70
2024/03/15 00:32:36;;;;;;;26.63;18.58;;;;;;;9.44;100.00;99889.97;5101333;27;20051;-72
2024/03/15 00:35:05;;;;;;;25.50;18.08;;;;;;;9.42;100.00;99880.44;5104894;27;20051;-70
2024/03/15 00:37:33;;;;;;;27.55;17.38;;;;;;;9.42;100.00;99876.00;5111503;27;20070;-71
2024/03/15 00:40:00;;;;;;;25.55;16.77;;;;;;;9.47;100.00;99884.53;5102397;27;20048;-70
2024/03/15 00:42:29;;;;;;;25.77;17.17;;;;;;;9.49;100.00;99882.69;5103098;27;20100;-70
2024/03/15 00:44:58;;;;;;;26.20;16.92;;;;;;;9.50;100.00;99876.47;5098744;27;20295;-70
2024/03/15 00:47:30;;;;;;;25.15;16.75;;;;;;;9.54;100.00;99869.25;5081674;27;20039;-73
2024/03/15 00:49:58;;;;;;;29.48;17.35;;;;;;;9.53;100.00;99858.75;5101458;27;20424;-69
2024/03/15 00:52:26;;;;;;;25.98;16.90;;;;;;;9.62;100.00;99871.47;5080469;27;20830;-69
2024/03/15 00:54:55;;;;;;;26.40;17.00;;;;;;;9.67;100.00;99864.19;5100275;27;20178;-69
2024/03/15 00:57:24;;;;;;;26.42;17.13;;;;;;;9.43;100.00;99814.31;5078541;27;20043;-70
2024/03/15 00:59:52;;;;;;;24.00;16.42;;;;;;;9.67;100.00;99857.09;5101203;27;20043;-69
2024/03/15 01:02:20;;;;;;;23.70;16.08;;;;;;;9.77;100.00;99865.41;5103077;27;20088;-69
2024/03/15 01:04:48;;;;;;;21.55;15.27;;;;;;;9.83;100.00;99860.66;5084773;27;20118;-68
2024/03/15 01:07:16;;;;;;;19.77;13.77;;;;;;;9.91;100.00;99862.06;5103301;27;20124;-70
2024/03/15 01:09:43;;;;;;;15.90;11.73;;;;;;;9.97;100.00;99857.28;5085769;27;20050;-71
2024/03/15 01:12:14;;;;;;;15.13;10.60;;;;;;;10.05;100.00;99854.25;5084575;27;20104;-69
2024/03/15 01:14:42;;;;;;;14.50;10.25;;;;;;;10.08;100.00;99849.63;5099846;27;20385;-71
2024/03/15 01:17:11;;;;;;;11.73;8.90;;;;;;;10.15;100.00;99860.75;5084401;27;20047;-72
2024/03/15 01:19:39;;;;;;;13.07;9.10;;;;;;;10.07;100.00;99839.16;5078271;27;20126;-70
2024/03/15 01:22:07;;;;;;;11.43;8.55;;;;;;;10.21;100.00;99854.31;5117496;27;20039;-69
2024/03/15 01:24:35;;;;;;;12.77;8.77;;;;;;;10.23;100.00;99852.44;5101703;27;20038;-69
2024/03/15 01:27:03;;;;;;;11.00;7.78;;;;;;;10.26;100.00;99857.53;5097516;27;20091;-68
2024/03/15 01:29:31;;;;;;;9.90;7.80;;;;;;;10.28;100.00;99855.66;5098967;27;20031;-71
2024/03/15 01:32:00;;;;;;;10.00;7.30;;;;;;;10.29;100.00;99852.94;5101991;27;20155;-69
2024/03/15 01:34:27;;;;;;;9.52;7.25;;;;;;;10.30;100.00;99861.75;5100976;27;20121;-69
2024/03/15 01:36:56;;;;;;;9.30;8.00;;;;;;;10.33;100.00;99865.06;5097652;27;20051;-70
2024/03/15 01:39:24;;;;;;;8.63;7.15;;;;;;;10.35;100.00;99862.34;5073147;27;20661;-70
2024/03/15 01:41:52;;;;;;;10.13;7.32;;;;;;;10.36;100.00;99851.69;5100161;27;20063;-70
2024/03/15 01:44:20;;;;;;;9.90;7.35;;;;;;;10.39;100.00;99853.31;5100023;27;20328;-71
2024/03/15 01:46:49;;;;;;;9.77;7.50;;;;;;;10.38;100.00;99852.47;5098011;27;20036;-71
2024/03/15 01:49:16;;;;;;;9.77;7.85;;;;;;;10.40;100.00;99844.41;5096606;27;20043;-72
2024/03/15 01:51:44;;;;;;;9.32;7.55;;;;;;;10.41;100.00;99846.97;5099019;27;20039;-70
2024/03/15 01:54:12;;;;;;;11.10;7.68;;;;;;;10.45;100.00;99860.91;5083343;27;20068;-71
2024/03/15 01:56:40;;;;;;;10.63;7.75;;;;;;;10.46;100.00;99854.66;5085168;27;20042;-71
2024/03/15 01:59:11;;;;;;;12.30;7.97;;;;;;;10.46;100.00;99854.66;5095762;27;20154;-70
2024/03/15 02:01:39;;;;;;;11.13;8.25;;;;;;;10.45;100.00;99847.66;5102866;27;20089;-71
2024/03/15 02:04:09;;;;;;;12.63;8.30;;;;;;;10.45;100.00;99850.31;5080761;27;20051;-70
2024/03/15 02:06:38;;;;;;;14.63;8.52;;;;;;;10.42;100.00;99851.34;5098723;27;20061;-72
2024/03/15 02:09:07;;;;;;;12.45;9.00;;;;;;;10.37;100.00;99847.25;5110548;27;20048;-70
2024/03/15 02:11:35;;;;;;;11.93;8.48;;;;;;;10.33;100.00;99848.34;5085963;27;20048;-71
2024/03/15 02:14:03;;;;;;;11.45;8.23;;;;;;;10.30;100.00;99843.22;5101477;27;20055;-69
2024/03/15 02:16:31;;;;;;;10.80;8.02;;;;;;;10.25;100.00;99837.31;5100812;27;20054;-69
2024/03/15 02:18:59;;;;;;;11.93;8.10;;;;;;;10.23;100.00;99849.78;5096464;27;20051;-72
2024/03/15 02:21:27;;;;;;;10.38;8.02;;;;;;;10.21;100.00;99841.94;5100227;27;20043;-69
2024/03/15 02:23:57;;;;;;;11.60;8.40;;;;;;;10.20;100.00;99842.88;5099170;27;20047;-70
2024/03/15 02:26:25;;;;;;;11.00;8.65;;;;;;;10.18;100.00;99840.31;5103599;27;20032;-70
2024/03/15 02:28:53;;;;;;;11.07;8.38;;;;;;;10.17;100.00;99840.34;5076817;27;20063;-70
2024/03/15 02:31:21;;;;;;;12.55;8.43;;;;;;;10.17;100.00;99840.34;5100447;27;20584;-70
2024/03/15 02:33:49;;;;;;;12.02;8.77;;;;;;;10.18;100.00;99832.38;5092436;27;20132;-69
2024/03/15 02:36:17;;;;;;;10.32;8.40;;;;;;;10.21;100.00;99834.00;5097957;27;20050;-70
2024/03/15 02:38:47;;;;;;;12.43;9.05;;;;;;;10.22;100.00;99829.56;5071225;27;20031;-69
2024/03/15 02:41:15;;;;;;;11.52;8.93;;;;;;;10.19;100.00;99825.28;5081604;28;20052;-69
2024/03/15 02:43:45;;;;;;;12.60;9.02;;;;;;;10.23;100.00;99831.28;5084597;27;20155;-70
2024/03/15 02:46:15;;;;;;;12.73;8.75;;;;;;;10.26;100.00;99826.66;5096671;27;20132;-70
2024/03/15 02:48:43;;;;;;;12.18;9.00;;;;;;;10.29;100.00;99837.06;5093180;27;20039;-68
2024/03/15 02:51:11;;;;;;;13.05;9.23;;;;;;;10.32;100.00;99836.06;5100936;27;20054;-69
2024/03/15 02:53:39;;;;;;;14.10;8.95;;;;;;;10.34;100.00;99836.81;5083599;27;20054;-70
2024/03/15 02:56:07;;;;;;;13.88;9.23;;;;;;;10.33;100.00;99837.75;5081989;27;20047;-70
2024/03/15 02:58:35;;;;;;;13.68;10.02;;;;;;;10.37;100.00;99834.00;5094961;27;20120;-69
2024/03/15 03:01:05;;;;;;;12.32;8.85;;;;;;;10.34;100.00;99842.13;5099029;27;20127;-70
2024/03/15 03:03:33;;;;;;;11.00;9.00;;;;;;;10.31;100.00;99837.00;5099094;27;20054;-70
2024/03/15 03:06:01;;;;;;;13.05;9.68;;;;;;;10.31;100.00;99843.13;5099962;27;20071;-70
2024/03/15 03:08:29;;;;;;;10.82;8.80;;;;;;;10.29;100.00;99844.16;5096008;27;20039;-72
2024/03/15 03:10:57;;;;;;;16.45;9.18;;;;;;;10.28;100.00;99842.44;5117109;27;20095;-69
2024/03/15 03:13:27;;;;;;;11.02;8.52;;;;;;;10.25;100.00;99845.25;5090521;28;20074;-69
2024/03/15 03:15:54;;;;;;;13.50;8.90;;;;;;;10.23;100.00;99855.09;5089882;27;20051;-69
2024/03/15 03:18:22;;;;;;;11.88;8.68;;;;;;;10.17;100.00;99854.44;5079913;28;20809;-70
2024/03/15 03:20:50;;;;;;;11.32;8.98;;;;;;;10.15;100.00;99848.38;5101163;27;20127;-70
2024/03/15 03:23:18;;;;;;;11.57;9.18;;;;;;;10.11;100.00;99851.25;5076526;27;20059;-71
2024/03/15 03:25:47;;;;;;;13.48;9.23;;;;;;;10.03;100.00;99838.44;5106876;28;20099;-69
2024/03/15 03:28:15;;;;;;;11.65;9.68;;;;;;;10.03;100.00;99846.38;5088241;28;20043;-71
2024/03/15 03:30:43;;;;;;;13.50;9.00;;;;;;;10.00;100.00;99843.91;5084388;27;20047;-70
2024/03/15 03:33:11;;;;;;;11.90;9.20;;;;;;;9.99;100.00;99852.78;5104957;27;20096;-70
2024/03/15 03:35:40;;;;;;;12.65;8.73;;;;;;;9.96;100.00;99850.28;5107973;27;20113;-69
2024/03/15 03:38:08;;;;;;;11.93;9.00;;;;;;;9.93;100.00;99842.50;5102282;27;20054;-69
2024/03/15 03:40:35;;;;;;;11.40;9.20;;;;;;;9.96;100.00;99850.28;5085903;27;20096;-72
2024/03/15 03:43:04;;;;;;;13.68;9.35;;;;;;;9.95;100.00;99848.56;5104238;27;20047;-70
2024/03/15 03:45:31;;;;;;;13.18;8.82;;;;;;;9.95;100.00;99839.78;5093505;27;20039;-69
2024/03/15 03:47:59;;;;;;;12.43;9.30;;;;;;;9.83;100.00;99826.28;5100569;27;20050;-70
2024/03/15 03:50:27;;;;;;;12.57;9.80;;;;;;;9.93;100.00;99839.84;5089490;27;20039;-69
2024/03/15 03:52:55;;;;;;;12.50;9.55;;;;;;;9.89;100.00;99830.41;5108898;27;20043;-73
2024/03/15 03:55:24;;;;;;;12.52;9.48;;;;;;;9.94;100.00;99840.72;5109209;27;20829;-70
2024/03/15 03:57:54;;;;;;;14.25;9.65;;;;;;;9.87;100.00;99832.28;5100638;27;20038;-69
2024/03/15 04:00:23;;;;;;;15.82;9.95;;;;;;;9.92;100.00;99845.22;5078178;27;20046;-69
2024/03/15 04:02:52;;;;;;;12.65;9.48;;;;;;;9.89;100.00;99846.28;5089734;27;20040;-69
2024/03/15 04:05:21;;;;;;;11.55;9.50;;;;;;;9.87;100.00;99858.72;5098691;27;20043;-70
2024/03/15 04:07:49;;;;;;;16.77;10.50;;;;;;;9.83;100.00;99858.00;5101437;27;20070;-70
2024/03/15 04:10:18;;;;;;;16.27;9.75;;;;;;;9.81;100.00;99866.97;5110620;27;20078;-70
2024/03/15 04:12:46;;;;;;;14.43;10.38;;;;;;;9.81;100.00;99856.38;5107853;27;20051;-69
2024/03/15 04:15:14;;;;;;;12.48;9.27;;;;;;;9.81;100.00;99857.22;5089954;27;20051;-72
2024/03/15 04:17:57;;;;;;;12.98;9.52;;;;;;;9.81;100.00;99851.94;5107705;27;20087;-69
2024/03/15 04:20:26;;;;;;;14.38;9.80;;;;;;;9.80;100.00;99844.09;5106998;27;20454;-70
2024/03/15 04:22:54;;;;;;;11.77;9.63;;;;;;;9.93;100.00;99857.50;5091458;27;20572;-70
2024/03/15 04:25:23;;;;;;;13.27;10.10;;;;;;;9.92;100.00;99854.00;5104157;27;20039;-69
2024/03/15 04:27:52;;;;;;;14.60;10.18;;;;;;;9.97;100.00;99861.72;5099082;27;20058;-69
2024/03/15 04:30:22;;;;;;;11.88;9.38;;;;;;;9.98;100.00;99866.06;5107235;27;20043;-70
2024/03/15 04:32:55;;;;;;;16.15;10.00;;;;;;;9.98;100.00;99858.13;5111289;27;20125;-69
2024/03/15 04:35:24;;;;;;;14.32;9.80;;;;;;;10.01;100.00;99861.47;5105992;27;20039;-69
2024/03/15 04:37:51;;;;;;;12.43;9.35;;;;;;;10.02;100.00;99855.25;5095442;27;20071;-69
2024/03/15 04:40:20;;;;;;;14.32;10.10;;;;;;;10.00;100.00;99857.13;5105065;27;20123;-69
2024/03/15 04:42:48;;;;;;;14.23;9.93;;;;;;;9.90;100.00;99866.50;5106504;27;20044;-69
2024/03/15 04:45:17;;;;;;;15.90;9.82;;;;;;;9.87;100.00;99864.00;5092791;27;20055;-70
2024/03/15 04:47:45;;;;;;;12.05;9.75;;;;;;;9.81;100.00;99872.25;5101139;27;20161;-69
2024/03/15 04:50:15;;;;;;;12.98;9.25;;;;;;;9.73;100.00;99869.16;5099772;27;20104;-71
2024/03/15 04:52:43;;;;;;;13.02;9.82;;;;;;;9.74;100.00;99866.44;5120178;27;20043;-69
2024/03/15 04:55:13;;;;;;;13.88;10.18;;;;;;;9.66;100.00;99873.91;5096115;27;20417;-70
2024/03/15 04:57:42;;;;;;;12.60;9.23;;;;;;;9.62;100.00;99871.47;5087229;27;20595;-70
2024/03/15 05:00:17;;;;;;;12.98;9.50;;;;;;;9.56;100.00;99866.53;5103994;27;20043;-71
2024/03/15 05:02:47;;;;;;;13.25;10.38;;;;;;;9.60;100.00;99873.38;5113531;27;20039;-69
2024/03/15 05:05:15;;;;;;;12.63;9.50;;;;;;;9.56;100.00;99875.31;5092979;27;20047;-70
2024/03/15 05:07:46;;;;;;;13.15;9.95;;;;;;;9.53;100.00;99877.25;5103983;27;20110;-69
2024/03/15 05:10:15;;;;;;;13.32;9.55;;;;;;;9.45;100.00;99867.06;5092095;27;20092;-72
2024/03/15 05:12:44;;;;;;;12.63;10.00;;;;;;;9.43;100.00;99872.44;5087803;27;20043;-70
2024/03/15 05:15:12;;;;;;;14.20;10.27;;;;;;;9.37;100.00;99863.94;5106659;27;20104;-70
2024/03/15 05:17:42;;;;;;;14.77;10.15;;;;;;;9.40;100.00;99871.72;5088206;27;20518;-71
2024/03/15 05:20:12;;;;;;;13.10;9.82;;;;;;;9.35;100.00;99874.59;5104768;27;20055;-69
2024/03/15 05:22:43;;;;;;;13.15;10.23;;;;;;;9.34;100.00;99870.25;5084135;27;20039;-69
2024/03/15 05:25:14;;;;;;;13.98;10.40;;;;;;;9.29;100.00;99880.19;5107666;27;20043;-70
2024/03/15 05:27:42;;;;;;;12.48;10.13;;;;;;;9.26;100.00;99885.63;5090861;27;20047;-70
2024/03/15 05:30:11;;;;;;;14.38;11.18;;;;;;;9.23;100.00;99879.66;5104583;27;20047;-70
2024/03/15 05:32:40;;;;;;;16.73;10.50;;;;;;;9.20;100.00;99880.66;5100279;27;20054;-70
2024/03/15 05:35:08;;;;;;;13.85;11.00;;;;;;;9.19;100.00;99878.94;5088880;27;20526;-70
2024/03/15 05:37:36;;;;;;;14.48;11.02;;;;;;;9.14;100.00;99865.09;5118870;27;20043;-71
2024/03/15 05:40:05;;;;;;;14.23;10.75;;;;;;;9.21;100.00;99881.50;5106813;27;20169;-69
2024/03/15 05:42:33;;;;;;;17.55;11.50;;;;;;;9.22;100.00;99888.50;5101083;27;20627;-71
2024/03/15 05:45:03;;;;;;;16.08;10.63;;;;;;;9.15;100.00;99888.78;5107412;27;20042;-68
2024/03/15 05:47:32;;;;;;;14.18;10.15;;;;;;;9.20;100.00;99891.22;5081848;27;20055;-69
2024/03/15 05:50:00;;;;;;;18.30;10.73;;;;;;;9.21;100.00;99895.56;5085060;27;20050;-69
2024/03/15 05:52:30;;;;;;;15.13;10.57;;;;;;;9.20;100.00;99899.13;5081066;27;20519;-72
2024/03/15 05:55:00;;;;;;;17.20;10.90;;;;;;;9.21;100.00;99898.22;5108015;27;20426;-70
2024/03/15 05:57:29;;;;;;;15.75;10.73;;;;;;;9.27;100.00;99897.06;5116072;27;20062;-72
2024/03/15 05:59:58;;;;;;;15.93;10.73;;;;;;;8.87;100.00;99835.63;5105086;27;20122;-75
2024/03/15 06:02:26;;;;;;;16.08;11.35;;;;;;;9.25;100.00;99905.06;5090292;27;20153;-69
2024/03/15 06:04:54;;;;;;;15.93;11.23;;;;;;;9.27;100.00;99903.22;5105379;27;20039;-71
2024/03/15 06:07:22;;;;;;;17.13;11.43;;;;;;;9.29;100.00;99916.31;5107910;27;20067;-70
2024/03/15 06:09:50;;;;;;;13.57;10.93;;;;;;;9.30;100.00;99921.53;5106003;27;20050;-70
2024/03/15 06:12:19;;;;;;;15.35;11.32;;;;;;;9.32;100.00;99921.44;5102487;27;20110;-70
2024/03/15 06:14:48;;;;;;;16.50;11.38;;;;;;;9.33;100.00;99912.59;5103847;27;20553;-69
2024/03/15 06:17:16;;;;;;;15.20;10.75;;;;;;;9.38;100.00;99916.72;5087660;27;20087;-70
2024/03/15 06:19:44;;;;;;;15.50;11.15;;;;;;;9.42;100.00;99914.81;5091322;27;20053;-69
2024/03/15 06:22:13;;;;;;;13.70;10.63;;;;;;;9.43;100.00;99906.78;5107284;27;20137;-69
2024/03/15 06:24:41;;;;;;;17.92;11.40;;;;;;;9.41;100.00;99884.03;5086840;27;20125;-71
2024/03/15 06:27:13;;;;;;;15.65;10.75;;;;;;;9.70;100.00;99917.75;5093682;27;20049;-70
2024/03/15 06:29:43;;;;;;;14.05;10.30;;;;;;;9.73;100.00;99919.41;5080761;27;20035;-70
2024/03/15 06:32:15;;;;;;;18.20;10.00;;;;;;;9.80;100.00;99919.00;5105502;27;20054;-70
2024/03/15 06:34:44;;;;;;;15.60;11.70;;;;;;;9.88;100.00;99921.25;5095408;27;20039;-70
2024/03/15 06:37:14;;;;;;;13.95;11.00;;;;;;;9.91;100.00;99913.16;5100211;27;20045;-69
2024/03/15 06:40:01;;;;;;;12.25;10.40;;;;;;;10.00;100.00;99917.97;5099652;27;20439;-69
2024/03/15 06:42:48;;;;;;;15.05;10.23;;;;;;;10.04;100.00;99921.31;5088845;27;20553;-69
2024/03/15 06:45:36;;;;;;;14.85;10.05;;;;;;;10.08;100.00;99910.47;5108026;27;20039;-70
2024/03/15 06:48:06;;;;;;;14.57;9.45;;;;;;;10.14;100.00;99919.88;5093502;27;20058;-70
2024/03/15 06:50:48;;;;;;;13.80;10.45;;;;;;;10.19;100.00;99920.53;5101541;27;20122;-70
2024/03/15 06:53:17;;;;;;;15.00;10.10;;;;;;;10.30;100.00;99927.91;5087358;27;20058;-72
2024/03/15 06:55:45;;;;;;;13.93;9.55;;;;;;;10.40;100.00;99929.09;5100998;27;20043;-71
2024/03/15 06:58:15;;;;;;;14.32;9.70;;;;;;;10.50;100.00;99935.63;5071064;27;20051;-70
2024/03/15 07:00:51;;;;;;;13.38;9.30;;;;;;;10.65;100.00;99945.41;5077143;27;20039;-69
2024/03/15 07:03:19;;;;;;;14.98;9.80;;;;;;;10.75;100.00;99935.16;5100081;28;20043;-70
2024/03/15 07:05:48;;;;;;;12.75;9.10;;;;;;;10.95;100.00;99934.06;5082845;27;20110;-70
2024/03/15 07:08:17;;;;;;;14.23;9.40;;;;;;;10.90;100.00;99911.31;5099425;27;20077;-71
2024/03/15 07:10:44;;;;;;;11.63;8.80;;;;;;;11.21;100.00;99934.28;5096208;27;20127;-70
2024/03/15 07:13:13;;;;;;;11.20;8.50;;;;;;;11.33;100.00;99924.81;5077174;27;20155;-70
2024/03/15 07:15:43;;;;;;;11.93;8.20;;;;;;;11.40;100.00;99925.28;5081480;28;20416;-73
2024/03/15 07:18:12;;;;;;;9.05;7.07;;;;;;;11.45;100.00;99932.03;5085080;28;20046;-71
2024/03/15 07:20:41;;;;;;;11.60;7.30;;;;;;;11.47;100.00;99934.59;5096140;27;20510;-69
2024/03/15 07:23:11;;;;;;;12.77;7.78;;;;;;;11.47;100.00;99924.84;5093328;27;20050;-72
2024/03/15 07:25:39;;;;;;;9.27;6.95;;;;;;;11.50;100.00;99929.94;5119324;28;20043;-71
2024/03/15 07:28:08;;;;;;;12.45;7.13;;;;;;;11.50;100.00;99951.16;5116782;27;20058;-72
2024/03/15 07:30:37;;;;;;;10.82;7.50;;;;;;;11.40;100.00;99938.53;5086686;28;20061;-69
2024/03/15 07:33:05;;;;;;;11.02;7.22;;;;;;;11.37;100.00;99944.00;5081017;27;20050;-71
2024/03/15 07:35:34;;;;;;;11.13;7.25;;;;;;;11.41;100.00;99957.00;5071216;28;20043;-71
2024/03/15 07:38:04;;;;;;;14.70;7.70;;;;;;;11.39;100.00;99952.72;5086887;27;20058;-69
2024/03/15 07:40:32;;;;;;;12.52;7.35;;;;;;;11.37;100.00;99954.63;5095396;27;20409;-72
2024/03/15 07:43:00;;;;;;;10.43;7.13;;;;;;;11.34;100.00;99950.34;5094588;27;20043;-71
2024/03/15 07:45:28;;;;;;;9.35;6.75;;;;;;;11.36;100.00;99944.94;5104511;28;20040;-71
2024/03/15 07:47:56;;;;;;;12.25;7.57;;;;;;;11.37;100.00;99936.91;5081809;28;20593;-74
2024/03/15 07:50:25;;;;;;;10.05;7.43;;;;;;;11.40;100.00;99939.41;5093554;28;20035;-70
2024/03/15 07:52:54;;;;;;;11.98;7.15;;;;;;;11.52;100.00;99948.44;5095868;27;20122;-70
2024/03/15 07:55:22;;;;;;;8.05;6.40;;;;;;;11.55;100.00;99943.81;5104725;27;20063;-70
2024/03/15 07:57:50;;;;;;;9.82;7.20;;;;;;;11.64;100.00;99939.78;5104975;28;20035;-72
2024/03/15 08:00:18;;;;;;;12.30;7.18;;;;;;;11.66;100.00;99945.81;5071879;28;20120;-70
2024/03/15 08:02:48;;;;;;;13.88;7.35;;;;;;;11.68;100.00;99953.69;5083935;27;20059;-69
2024/03/15 08:05:16;;;;;;;8.98;6.97;;;;;;;11.67;100.00;99944.88;5106085;28;20780;-69
2024/03/15 08:07:45;;;;;;;10.30;6.63;;;;;;;11.76;100.00;99960.31;5103123;28;20050;-71
2024/03/15 08:10:17;;;;;;;10.65;6.70;;;;;;;11.85;100.00;99950.94;5096043;27;20051;-70
2024/03/15 08:12:46;;;;;;;10.57;6.78;;;;;;;11.95;100.00;99957.44;5098618;27;20497;-73
2024/03/15 08:15:14;;;;;;;10.70;7.25;;;;;;;12.07;100.00;99963.78;5100450;28;20480;-69
2024/03/15 08:17:48;;;;;;;10.32;7.13;;;;;;;12.23;100.00;99965.44;5103385;28;20117;-70
2024/03/15 08:20:17;;;;;;;10.68;6.97;;;;;;;12.30;100.00;99966.75;5081576;27;20039;-70
2024/03/15 08:22:45;;;;;;;12.52;7.68;;;;;;;12.29;100.00;99962.38;5100400;27;20054;-71
2024/03/15 08:25:13;;;;;;;10.63;7.53;;;;;;;12.38;100.00;99968.97;5106207;27;20107;-69
2024/03/15 08:27:44;;;;;;;7.28;6.53;;;;;;;12.44;100.00;99957.09;5112241;27;20067;-69
2024/03/15 08:30:16;;;;;;;12.60;7.35;;;;;;;12.34;100.00;99963.91;5114073;27;20127;-75
2024/03/15 08:32:45;;;;;;;11.43;7.43;;;;;;;12.14;100.00;99968.63;5080634;27;20054;-72
2024/03/15 08:35:14;;;;;;;13.25;7.72;;;;;;;11.91;100.00;99958.56;5102109;27;20485;-69
2024/03/15 08:37:44;;;;;;;13.18;6.88;;;;;;;11.96;100.00;99972.41;5102950;27;20043;-71
2024/03/15 08:40:14;;;;;;;10.80;7.10;;;;;;;12.00;100.00;99971.25;5106202;27;20047;-73
2024/03/15 08:42:45;;;;;;;10.63;7.10;;;;;;;12.05;100.00;99979.81;5106328;27;20054;-72
2024/03/15 08:45:14;;;;;;;10.40;7.25;;;;;;;11.96;100.00;99960.94;5095194;27;20047;-71
2024/03/15 08:47:43;;;;;;;8.63;7.10;;;;;;;11.96;100.00;99953.84;5107074;27;20043;-72
2024/03/15 08:50:26;;;;;;;9.93;6.32;;;;;;;12.03;100.00;99976.38;5098325;27;20036;-74
2024/03/15 08:52:55;;;;;;;10.55;7.70;;;;;;;12.16;100.00;99985.31;5084474;27;20047;-72
2024/03/15 08:55:23;;;;;;;17.73;8.07;;;;;;;12.15;100.00;99985.41;5091590;27;20080;-71
2024/03/15 08:57:51;;;;;;;12.35;7.15;;;;;;;12.12;100.00;99993.59;5110942;27;20050;-72
2024/03/15 09:00:20;;;;;;;12.48;7.82;;;;;;;12.10;100.00;100003.44;5100981;27;20039;-71
2024/03/15 09:02:48;;;;;;;11.85;7.00;;;;;;;11.91;100.00;99977.97;5091618;27;20050;-73
2024/03/15 09:05:16;;;;;;;8.48;6.82;;;;;;;12.04;100.00;100001.97;5115872;27;20039;-71
2024/03/15 09:07:45;;;;;;;10.52;6.82;;;;;;;12.07;100.00;99998.28;5113233;27;20043;-70
2024/03/15 09:10:14;;;;;;;9.68;7.25;;;;;;;11.92;100.00;99968.22;5106857;27;20043;-70
2024/03/15 09:12:42;;;;;;;10.32;7.22;;;;;;;12.05;100.00;99998.38;5104984;27;20684;-73
2024/03/15 09:15:12;;;;;;;10.40;7.10;;;;;;;12.02;100.00;100000.34;5104537;27;20054;-72
2024/03/15 09:17:40;;;;;;;11.18;7.22;;;;;;;12.02;100.00;100011.84;5117210;27;20050;-71
2024/03/15 09:20:18;;;;;;;10.75;7.03;;;;;;;12.03;100.00;100008.22;5090103;27;20039;-70
2024/03/15 09:22:47;;;;;;;10.60;7.40;;;;;;;12.07;100.00;100011.56;5100306;27;20126;-70
2024/03/15 09:25:20;;;;;;;11.03;6.87;;;;;;;12.00;100.00;99983.66;5111020;27;20677;-71
2024/03/15 09:27:52;;;;;;;13.13;8.07;;;;;;;12.13;100.00;100001.41;5110104;27;20445;-71
2024/03/15 09:30:26;;;;;;;13.70;7.30;;;;;;;12.18;100.00;100006.47;5090821;27;20035;-72
2024/03/15 09:32:54;;;;;;;11.10;7.10;;;;;;;12.24;100.00;100001.66;5106517;27;20058;-73
2024/03/15 09:35:23;;;;;;;10.90;7.20;;;;;;;12.32;100.00;100003.84;5104974;27;20047;-70
2024/03/15 09:37:51;;;;;;;9.88;7.20;;;;;;;12.21;100.00;99979.75;5111129;27;20642;-71
2024/03/15 09:40:20;;;;;;;13.88;7.72;;;;;;;12.38;100.00;100011.44;5092954;27;20039;-70
2024/03/15 09:42:52;;;;;;;10.32;7.07;;;;;;;12.40;100.00;100000.72;5105413;27;20573;-70
2024/03/15 09:45:21;;;;;;;12.15;7.35;;;;;;;12.42;100.00;100007.66;5107224;27;20084;-71
2024/03/15 09:47:50;;;;;;;10.93;7.20;;;;;;;12.43;100.00;100006.72;5108298;27;20124;-70
2024/03/15 09:50:21;;;;;;;12.18;7.25;;;;;;;12.44;100.00;100004.88;5103615;27;20047;-71
2024/03/15 09:52:53;;;;;;;11.75;6.78;;;;;;;12.45;100.00;100010.09;5107926;27;20080;-71
2024/03/15 09:55:23;;;;;;;9.75;6.30;;;;;;;12.45;100.00;100004.78;5090893;27;20050;-71
2024/03/15 09:57:52;;;;;;;12.18;6.70;;;;;;;12.45;100.00;100007.44;5108489;27;20050;-72
2024/03/15 10:00:24;;;;;;;11.50;6.40;;;;;;;12.46;100.00;99995.03;5109351;27;20035;-70
2024/03/15 10:02:53;;;;;;;8.93;5.97;;;;;;;12.56;100.00;100010.34;5105602;27;20042;-70
2024/03/15 10:05:21;;;;;;;13.20;6.07;;;;;;;12.57;100.00;100013.84;5103746;27;20048;-70
2024/03/15 10:07:49;;;;;;;10.73;5.88;;;;;;;12.58;100.00;100007.59;5106340;27;20788;-71
2024/03/15 10:10:18;;;;;;;9.73;5.68;;;;;;;12.63;100.00;100000.16;5109864;27;20116;-70
2024/03/15 10:12:46;;;;;;;9.38;5.05;;;;;;;12.71;100.00;99997.06;5101063;27;20048;-72
2024/03/15 10:15:18;;;;;;;8.32;5.10;;;;;;;12.73;100.00;99998.66;5107388;27;20134;-69
2024/03/15 10:17:46;;;;;;;7.85;5.45;;;;;;;12.76;100.00;100005.56;5108068;27;20054;-70
2024/03/15 10:20:14;;;;;;;9.00;4.60;;;;;;;12.62;100.00;99975.41;5095802;27;20139;-70
2024/03/15 10:22:42;;;;;;;8.27;4.28;;;;;;;12.74;100.00;99995.06;5102740;27;20049;-73
2024/03/15 10:25:15;;;;;;;;;;;;;;;12.89;100.00;99998.56;5101485;27;20053;-70
2024/03/15 10:27:43;;;;;;;7.22;4.20;;;;;;;13.01;100.00;100005.75;5112662;27;19919;-71
2024/03/15 10:30:14;;;;;;;9.15;4.57;;;;;;;13.09;100.00;100005.25;5087495;27;20043;-70
2024/03/15 10:32:46;;;;;;;4.80;4.03;;;;;;;13.08;100.00;100008.88;5087035;27;20061;-70
2024/03/15 10:35:15;;;;;;;7.90;4.47;;;;;;;12.91;100.00;99986.84;5106549;27;20043;-70
2024/03/15 10:37:44;;;;;;;6.63;4.50;;;;;;;13.06;100.00;100010.78;5092227;27;20540;-70
2024/03/15 10:40:12;;;;;;;4.63;3.70;;;;;;;13.04;100.00;100004.72;5095668;27;20072;-76
2024/03/15 10:42:41;;;;;;;7.35;4.15;;;;;;;13.04;100.00;100016.22;5086616;27;20512;-70
2024/03/15 10:45:10;;;;;;;4.72;3.70;;;;;;;12.56;100.00;99964.31;5085928;27;20069;-71
2024/03/15 10:47:38;;;;;;;5.60;3.40;;;;;;;12.86;100.00;100020.88;5103531;27;20470;-70
2024/03/15 10:50:07;;;;;;;5.88;3.75;;;;;;;12.70;100.00;99985.56;5091680;27;20066;-70
2024/03/15 10:52:35;;;;;;;4.57;3.47;;;;;;;12.93;100.00;100016.00;5104817;27;20043;-74
2024/03/15 10:55:04;;;;;;;4.18;3.78;;;;;;;12.97;100.00;100013.06;5097338;27;20047;-73
2024/03/15 10:57:32;;;;;;;4.70;3.75;;;;;;;12.97;100.00;100018.38;5096240;27;20050;-70
2024/03/15 11:00:00;;;;;;;5.95;3.97;;;;;;;12.88;100.00;99995.06;5111492;27;20057;-70
2024/03/15 11:02:28;;;;;;;4.95;4.28;;;;;;;12.97;100.00;99989.16;5086129;27;20039;-74
2024/03/15 11:04:56;;;;;;;5.32;3.80;;;;;;;13.19;100.00;100017.91;5112492;27;20134;-69
2024/03/15 11:07:23;;;;;;;8.32;4.50;;;;;;;13.20;100.00;100024.94;5096496;27;20043;-71
2024/03/15 11:09:55;;;;;;;6.55;4.32;;;;;;;13.19;100.00;100017.91;5093713;28;20537;-70
2024/03/15 11:12:27;;;;;;;8.32;4.82;;;;;;;13.10;100.00;99999.00;5100482;27;20035;-70
2024/03/15 11:14:55;;;;;;;7.38;4.30;;;;;;;13.21;100.00;100009.84;5103237;27;20570;-71
2024/03/15 11:17:22;;;;;;;5.68;3.53;;;;;;;13.20;100.00;100018.78;5105654;28;20039;-75
2024/03/15 11:19:53;;;;;;;5.20;3.80;;;;;;;12.99;100.00;99999.69;5105311;27;20155;-70
2024/03/15 11:22:22;;;;;;;10.15;6.13;;;;;;;13.19;100.00;100022.38;5090937;28;20551;-71
2024/03/15 11:24:51;;;;;;;5.68;4.30;;;;;;;13.11;100.00;100009.53;5083648;27;20058;-71
2024/03/15 11:27:20;;;;;;;5.40;4.50;;;;;;;13.21;100.00;100020.50;5120697;27;20043;-72